Time;durP1;ratioP1;P1;durP2;ratioP2;P2;SDS_P1;SDS_P2;PMS_P1;PMS_P2;Temp;Humidity;BMP_temperature;BMP_pressure;BME280_temperature;BME280_humidity;BME280_pressure;Samples;Min_cycle;Max_cycle;Signal;HPM_P1;HPM_P2
2024/02/07 06:02:17;;;;;;;6.23;2.80;;;;;;;;;;5140231;23;21023;-76
2024/02/07 06:04:48;;;;;;;6.90;2.83;;;;;;;;;;4994540;28;20415;-75
2024/02/07 06:07:14;;;;;;;4.43;2.63;;;;;;;;;;4993770;28;20419;-75
2024/02/07 06:09:40;;;;;;;7.43;3.53;;;;;;;;;;4994441;28;20407;-75
2024/02/07 06:12:07;;;;;;;7.33;4.07;;;;;;;;;;4978447;28;20436;-75
2024/02/07 06:14:34;;;;;;;8.73;3.60;;;;;;;;;;4975209;28;20490;-74
2024/02/07 06:17:00;;;;;;;7.57;3.00;;;;;;;;;;4975044;28;20408;-73
2024/02/07 06:19:26;;;;;;;5.10;2.77;;;;;;;;;;4963125;28;20436;-74
2024/02/07 06:21:52;;;;;;;5.73;3.17;;;;;;;;;;4955437;29;20477;-74
2024/02/07 06:24:18;;;;;;;4.90;2.73;;;;;;;;;;4955459;28;20412;-73
2024/02/07 06:26:44;;;;;;;8.50;3.17;;;;;;;;;;4955612;28;20440;-73
2024/02/07 06:29:10;;;;;;;11.83;3.43;;;;;;;;;;4956164;29;20409;-74
2024/02/07 06:31:36;;;;;;;5.73;2.77;;;;;;;;;;4970430;28;20518;-74
2024/02/07 06:34:03;;;;;;;4.13;2.50;;;;;;;;;;4975151;28;20416;-74
2024/02/07 06:36:29;;;;;;;9.87;3.27;;;;;;;;;;4974744;28;20506;-74
2024/02/07 06:38:55;;;;;;;6.70;2.93;;;;;;;;;;4971980;28;20527;-76
2024/02/07 06:41:23;;;;;;;6.33;3.47;;;;;;;;;;4974393;28;20482;-74
2024/02/07 06:43:49;;;;;;;4.80;2.60;;;;;;;;;;4973582;28;20416;-74
2024/02/07 06:46:15;;;;;;;8.07;2.60;;;;;;;;;;4974493;28;20427;-74
2024/02/07 06:48:41;;;;;;;15.43;3.50;;;;;;;;;;4968181;28;20503;-75
2024/02/07 06:51:07;;;;;;;7.20;3.60;;;;;;;;;;4964484;28;20443;-74
2024/02/07 06:53:33;;;;;;;6.30;3.20;;;;;;;;;;4975026;28;20423;-75
2024/02/07 06:55:59;;;;;;;11.20;3.60;;;;;;;;;;4975215;28;20506;-74
2024/02/07 06:58:25;;;;;;;3.50;2.60;;;;;;;;;;4972870;28;20515;-72
2024/02/07 07:00:51;;;;;;;9.33;3.23;;;;;;;;;;4957727;28;20575;-71
2024/02/07 07:03:17;;;;;;;8.20;4.67;;;;;;;;;;4965465;28;20423;-70
2024/02/07 07:05:43;;;;;;;7.00;4.00;;;;;;;;;;4974127;28;20416;-70
2024/02/07 07:08:08;;;;;;;6.20;2.77;;;;;;;;;;4972541;28;20451;-71
2024/02/07 07:10:34;;;;;;;11.10;3.43;;;;;;;;;;4970812;28;20432;-73
2024/02/07 07:13:00;;;;;;;11.83;3.43;;;;;;;;;;4972550;28;20458;-71
2024/02/07 07:15:26;;;;;;;6.43;3.50;;;;;;;;;;4972440;28;20431;-72
2024/02/07 07:17:52;;;;;;;7.77;3.43;;;;;;;;;;4973971;28;20784;-72
2024/02/07 07:20:18;;;;;;;9.57;3.03;;;;;;;;;;4973383;28;20994;-72
2024/02/07 07:22:44;;;;;;;8.43;3.90;;;;;;;;;;4973690;28;20443;-73
2024/02/07 07:25:10;;;;;;;6.47;4.17;;;;;;;;;;4974024;28;20507;-72
2024/02/07 07:27:36;;;;;;;6.07;3.10;;;;;;;;;;4973700;28;20420;-72
2024/02/07 07:30:02;;;;;;;4.70;3.40;;;;;;;;;;4973720;28;20415;-72
2024/02/07 07:32:28;;;;;;;10.43;3.63;;;;;;;;;;4973276;28;20432;-72
2024/02/07 07:34:54;;;;;;;6.00;3.73;;;;;;;;;;4973530;28;20420;-72
2024/02/07 07:37:20;;;;;;;5.90;3.07;;;;;;;;;;4973048;28;20507;-72
2024/02/07 07:39:46;;;;;;;4.77;2.90;;;;;;;;;;4973277;28;20830;-72
2024/02/07 07:42:12;;;;;;;8.13;3.60;;;;;;;;;;4973782;28;20467;-72
2024/02/07 07:44:40;;;;;;;7.00;3.80;;;;;;;;;;4973429;28;20392;-73
2024/02/07 07:47:06;;;;;;;10.20;2.97;;;;;;;;;;4973503;28;20415;-72
2024/02/07 07:49:32;;;;;;;4.87;3.10;;;;;;;;;;4973506;28;20416;-72
2024/02/07 07:51:58;;;;;;;9.97;3.40;;;;;;;;;;4972343;28;20486;-71
2024/02/07 07:54:24;;;;;;;13.77;4.27;;;;;;;;;;4973345;28;20420;-72
2024/02/07 07:56:50;;;;;;;15.50;4.20;;;;;;;;;;4973348;28;20416;-72
2024/02/07 07:59:16;;;;;;;6.30;4.00;;;;;;;;;;4975749;28;20498;-73
2024/02/07 08:01:42;;;;;;;12.17;3.63;;;;;;;;;;4973494;28;20479;-74
2024/02/07 08:04:08;;;;;;;9.90;3.30;;;;;;;;;;4973268;28;20412;-74
2024/02/07 08:06:34;;;;;;;7.10;2.83;;;;;;;;;;4973296;28;20411;-74
2024/02/07 08:09:01;;;;;;;6.33;3.40;;;;;;;;;;4973128;28;20412;-74
2024/02/07 08:11:26;;;;;;;8.60;3.63;;;;;;;;;;4973300;28;20927;-74
2024/02/07 08:13:52;;;;;;;9.90;3.43;;;;;;;;;;4973209;28;20499;-74
2024/02/07 08:16:18;;;;;;;8.73;3.27;;;;;;;;;;4973054;28;20427;-74
2024/02/07 08:18:44;;;;;;;7.37;3.40;;;;;;;;;;4971736;28;20470;-73
2024/02/07 08:21:10;;;;;;;4.90;3.13;;;;;;;;;;4972965;28;20903;-74
2024/02/07 08:23:36;;;;;;;6.43;3.33;;;;;;;;;;4973031;28;20408;-73
2024/02/07 08:26:03;;;;;;;23.13;5.30;;;;;;;;;;4972933;28;20810;-74
2024/02/07 08:28:29;;;;;;;8.00;2.73;;;;;;;;;;4972958;28;20428;-74
2024/02/07 08:30:55;;;;;;;12.53;3.27;;;;;;;;;;4972622;28;20436;-74
2024/02/07 08:33:21;;;;;;;7.70;3.50;;;;;;;;;;4973039;28;20416;-74
2024/02/07 08:35:47;;;;;;;8.27;4.10;;;;;;;;;;4972901;28;20467;-73
2024/02/07 08:38:13;;;;;;;6.30;2.97;;;;;;;;;;4972877;28;20419;-74
2024/02/07 08:40:39;;;;;;;11.10;3.37;;;;;;;;;;4972707;28;20486;-74
2024/02/07 08:43:06;;;;;;;5.80;3.50;;;;;;;;;;4972964;28;20845;-74
2024/02/07 08:45:34;;;;;;;17.83;3.90;;;;;;;;;;4972499;28;20787;-74
2024/02/07 08:48:00;;;;;;;10.70;3.73;;;;;;;;;;4972786;28;20408;-73
2024/02/07 08:50:26;;;;;;;10.83;3.23;;;;;;;;;;4974212;28;20412;-72
2024/02/07 08:52:51;;;;;;;6.10;3.07;;;;;;;;;;4976573;28;20498;-74
2024/02/07 08:55:17;;;;;;;7.87;3.90;;;;;;;;;;4976535;28;20848;-74
2024/02/07 08:57:43;;;;;;;9.83;3.50;;;;;;;;;;4976317;28;20930;-74
2024/02/07 09:00:10;;;;;;;9.00;2.93;;;;;;;;;;4975987;28;20408;-74
2024/02/07 09:02:36;;;;;;;4.57;3.17;;;;;;;;;;4976393;28;20434;-74
2024/02/07 09:05:04;;;;;;;13.37;3.20;;;;;;;;;;4976967;28;20412;-74
2024/02/07 09:07:31;;;;;;;5.77;2.80;;;;;;;;;;4976340;28;20436;-73
2024/02/07 09:09:57;;;;;;;6.40;3.67;;;;;;;;;;4976056;28;20408;-73
2024/02/07 09:12:23;;;;;;;8.30;3.20;;;;;;;;;;4976023;28;20463;-73
2024/02/07 09:14:49;;;;;;;10.00;3.07;;;;;;;;;;4975973;28;20415;-74
2024/02/07 09:17:15;;;;;;;8.80;3.40;;;;;;;;;;4976008;28;20412;-74
2024/02/07 09:19:41;;;;;;;6.67;3.83;;;;;;;;;;4976529;28;20404;-75
2024/02/07 09:22:07;;;;;;;7.03;3.27;;;;;;;;;;4976473;28;20459;-73
2024/02/07 09:24:33;;;;;;;8.33;3.10;;;;;;;;;;4976022;28;20768;-74
2024/02/07 09:26:59;;;;;;;7.20;3.47;;;;;;;;;;4976564;28;20408;-73
2024/02/07 09:29:25;;;;;;;3.87;2.63;;;;;;;;;;4975612;28;20412;-73
2024/02/07 09:31:51;;;;;;;11.27;4.07;;;;;;;;;;4975997;28;20945;-74
2024/02/07 09:34:17;;;;;;;9.13;3.37;;;;;;;;;;4976163;28;20412;-73
2024/02/07 09:36:43;;;;;;;9.27;3.70;;;;;;;;;;4975639;28;20785;-74
2024/02/07 09:39:09;;;;;;;14.17;3.90;;;;;;;;;;4975543;28;20439;-73
2024/02/07 09:41:35;;;;;;;7.13;3.80;;;;;;;;;;4975688;28;20798;-73
2024/02/07 09:44:03;;;;;;;8.37;3.50;;;;;;;;;;4975706;28;20424;-73
2024/02/07 09:46:35;;;;;;;9.57;4.03;;;;;;;;;;4975511;28;20461;-74
2024/02/07 09:49:01;;;;;;;11.20;4.20;;;;;;;;;;4975359;28;20895;-74
2024/02/07 09:51:28;;;;;;;8.93;3.90;;;;;;;;;;4975401;28;20911;-74
2024/02/07 09:53:54;;;;;;;11.33;3.63;;;;;;;;;;4975428;28;20424;-73
2024/02/07 09:56:20;;;;;;;8.53;3.83;;;;;;;;;;4975243;28;20514;-74
2024/02/07 09:58:46;;;;;;;8.53;3.60;;;;;;;;;;4975576;28;20468;-74
2024/02/07 10:01:15;;;;;;;13.13;4.17;;;;;;;;;;4974494;28;20942;-74
2024/02/07 10:03:42;;;;;;;4.60;2.93;;;;;;;;;;4975378;28;20416;-74
2024/02/07 10:06:08;;;;;;;6.20;3.77;;;;;;;;;;4975217;28;20420;-74
2024/02/07 10:08:35;;;;;;;5.03;2.83;;;;;;;;;;4975384;28;20811;-74
2024/02/07 10:11:01;;;;;;;7.40;3.60;;;;;;;;;;4975395;28;20462;-75
2024/02/07 10:13:27;;;;;;;11.00;3.20;;;;;;;;;;4975718;28;20510;-74
2024/02/07 10:15:53;;;;;;;6.33;2.83;;;;;;;;;;4975178;28;20423;-75
2024/02/07 10:18:19;;;;;;;7.43;3.30;;;;;;;;;;4975070;28;20424;-75
2024/02/07 10:20:52;;;;;;;11.20;3.53;;;;;;;;;;4974582;28;20491;-74
2024/02/07 10:23:18;;;;;;;7.90;3.70;;;;;;;;;;4974689;28;20419;-74
2024/02/07 10:25:53;;;;;;;10.17;3.53;;;;;;;;;;4974881;28;20806;-75
2024/02/07 10:28:20;;;;;;;5.43;2.80;;;;;;;;;;4974648;28;20411;-75
2024/02/07 10:30:59;;;;;;;7.10;3.27;;;;;;;;;;4974355;28;20859;-75
2024/02/07 10:33:33;;;;;;;4.33;2.70;;;;;;;;;;4974726;28;20851;-74
2024/02/07 10:36:00;;;;;;;13.53;3.30;;;;;;;;;;4974646;28;20408;-74
2024/02/07 10:38:26;;;;;;;4.73;3.10;;;;;;;;;;4974744;28;20506;-75
2024/02/07 10:40:52;;;;;;;5.70;3.00;;;;;;;;;;4974394;28;20872;-75
2024/02/07 10:43:24;;;;;;;7.10;3.00;;;;;;;;;;4974741;28;20778;-74
2024/02/07 10:45:57;;;;;;;5.20;2.50;;;;;;;;;;4974452;28;20412;-75
2024/02/07 10:48:23;;;;;;;8.07;2.70;;;;;;;;;;4974343;28;20408;-75
2024/02/07 10:50:49;;;;;;;7.50;2.70;;;;;;;;;;4974385;28;20431;-73
2024/02/07 10:53:15;;;;;;;4.47;3.03;;;;;;;;;;4974383;28;20408;-74
2024/02/07 10:55:41;;;;;;;3.67;2.40;;;;;;;;;;4974287;28;20747;-74
2024/02/07 10:58:10;;;;;;;5.63;3.60;;;;;;;;;;4974431;28;20428;-74
2024/02/07 11:00:36;;;;;;;5.73;2.63;;;;;;;;;;4974022;28;20974;-74
2024/02/07 11:03:02;;;;;;;9.57;3.67;;;;;;;;;;4974279;28;20400;-74
2024/02/07 11:05:29;;;;;;;4.30;3.03;;;;;;;;;;4973869;28;20420;-75
2024/02/07 11:07:55;;;;;;;6.27;3.03;;;;;;;;;;4974129;28;20726;-73
2024/02/07 11:10:22;;;;;;;14.37;3.03;;;;;;;;;;4973790;28;20403;-73
2024/02/07 11:12:48;;;;;;;5.20;2.80;;;;;;;;;;4973338;28;20412;-74
2024/02/07 11:15:14;;;;;;;4.90;3.00;;;;;;;;;;4974093;28;20467;-75
2024/02/07 11:17:40;;;;;;;9.30;3.13;;;;;;;;;;4974285;28;20419;-74
2024/02/07 11:20:07;;;;;;;6.73;2.90;;;;;;;;;;4973781;28;20499;-74
2024/02/07 11:22:36;;;;;;;4.77;2.80;;;;;;;;;;4973833;28;20521;-75
2024/02/07 11:25:03;;;;;;;4.70;2.60;;;;;;;;;;4974074;28;20470;-75
2024/02/07 11:27:29;;;;;;;6.37;2.60;;;;;;;;;;4973951;28;20411;-73
2024/02/07 11:29:55;;;;;;;6.30;2.77;;;;;;;;;;4973765;28;20408;-72
2024/02/07 11:32:21;;;;;;;4.57;2.30;;;;;;;;;;4973422;28;20432;-73
2024/02/07 11:34:54;;;;;;;4.57;2.70;;;;;;;;;;4973375;28;20414;-73
2024/02/07 11:37:21;;;;;;;4.60;2.43;;;;;;;;;;4973586;28;20426;-74
2024/02/07 11:39:49;;;;;;;3.40;2.43;;;;;;;;;;4973783;28;20412;-74
2024/02/07 11:42:16;;;;;;;7.10;2.67;;;;;;;;;;4973583;28;20478;-74
2024/02/07 11:44:55;;;;;;;4.40;2.50;;;;;;;;;;4973779;28;20822;-75
2024/02/07 11:47:25;;;;;;;7.80;2.30;;;;;;;;;;4973537;28;20945;-74
2024/02/07 11:49:58;;;;;;;4.33;2.70;;;;;;;;;;4973225;28;20933;-74
2024/02/07 11:52:28;;;;;;;10.20;2.80;;;;;;;;;;4973473;28;20446;-75
2024/02/07 11:54:54;;;;;;;2.70;2.40;;;;;;;;;;4973707;28;20454;-74
2024/02/07 11:57:21;;;;;;;4.47;2.80;;;;;;;;;;4976750;28;20408;-74
2024/02/07 11:59:47;;;;;;;3.97;2.13;;;;;;;;;;4976904;28;20614;-74
2024/02/07 12:02:16;;;;;;;4.77;3.13;;;;;;;;;;4976050;28;20864;-75
2024/02/07 12:04:43;;;;;;;4.00;3.00;;;;;;;;;;4976042;28;20416;-74
2024/02/07 12:07:09;;;;;;;5.30;2.30;;;;;;;;;;4976424;28;20954;-73
2024/02/07 12:09:35;;;;;;;4.30;2.17;;;;;;;;;;4976248;28;20775;-74
2024/02/07 12:12:01;;;;;;;4.53;2.40;;;;;;;;;;4975032;28;20467;-74
2024/02/07 12:14:27;;;;;;;4.70;1.70;;;;;;;;;;4978674;28;20420;-72
2024/02/07 12:16:53;;;;;;;6.50;1.83;;;;;;;;;;4978790;28;20502;-71
2024/02/07 12:19:19;;;;;;;3.23;1.97;;;;;;;;;;4977169;28;20435;-72
2024/02/07 12:21:46;;;;;;;6.17;2.03;;;;;;;;;;4976684;28;20471;-72
2024/02/07 12:24:12;;;;;;;4.70;2.40;;;;;;;;;;4978852;28;20403;-73
2024/02/07 12:26:39;;;;;;;4.20;2.40;;;;;;;;;;4980999;28;20404;-72
2024/02/07 12:29:06;;;;;;;6.60;2.13;;;;;;;;;;4981331;28;20431;-73
2024/02/07 12:31:32;;;;;;;1.73;1.60;;;;;;;;;;4982102;28;20428;-74
2024/02/07 12:33:58;;;;;;;4.60;1.60;;;;;;;;;;4982186;28;20415;-74
2024/02/07 12:36:24;;;;;;;3.80;1.77;;;;;;;;;;4983261;28;20474;-74
2024/02/07 12:38:50;;;;;;;4.63;1.80;;;;;;;;;;4980527;28;20448;-74
2024/02/07 12:41:16;;;;;;;2.60;2.03;;;;;;;;;;4981372;28;20463;-74
2024/02/07 12:43:43;;;;;;;2.33;1.70;;;;;;;;;;4978155;28;20922;-73
2024/02/07 12:46:09;;;;;;;1.67;1.60;;;;;;;;;;4979044;28;20411;-73
2024/02/07 12:48:35;;;;;;;2.30;1.60;;;;;;;;;;4978690;28;20447;-73
2024/02/07 12:51:02;;;;;;;3.13;1.47;;;;;;;;;;4980406;28;20435;-73
2024/02/07 12:53:28;;;;;;;5.07;1.80;;;;;;;;;;4980612;28;20922;-74
2024/02/07 12:55:54;;;;;;;3.70;2.00;;;;;;;;;;4980964;28;20980;-75
2024/02/07 12:58:21;;;;;;;6.27;1.77;;;;;;;;;;4980729;28;20415;-74
2024/02/07 13:00:47;;;;;;;3.23;1.50;;;;;;;;;;4982605;28;20467;-75
2024/02/07 13:03:13;;;;;;;2.77;1.50;;;;;;;;;;4976974;28;20458;-73
2024/02/07 13:05:40;;;;;;;5.60;1.80;;;;;;;;;;4976610;28;20847;-74
2024/02/07 13:08:09;;;;;;;2.30;1.43;;;;;;;;;;4976608;28;20443;-73
2024/02/07 13:10:37;;;;;;;2.90;1.60;;;;;;;;;;4976450;28;20935;-74
2024/02/07 13:13:04;;;;;;;1.90;1.60;;;;;;;;;;4976624;28;20403;-75
2024/02/07 13:15:30;;;;;;;3.30;1.90;;;;;;;;;;4976746;28;20911;-74
2024/02/07 13:17:56;;;;;;;1.50;1.40;;;;;;;;;;4976308;28;20435;-74
2024/02/07 13:20:22;;;;;;;3.73;1.70;;;;;;;;;;4975994;28;20506;-74
2024/02/07 13:22:48;;;;;;;2.77;1.60;;;;;;;;;;4975983;28;20491;-74
2024/02/07 13:25:14;;;;;;;4.50;1.83;;;;;;;;;;4976154;28;20410;-74
2024/02/07 13:27:43;;;;;;;6.53;1.50;;;;;;;;;;4974886;28;20514;-73
2024/02/07 13:30:10;;;;;;;4.57;2.13;;;;;;;;;;4975917;28;20412;-74
2024/02/07 13:32:36;;;;;;;1.67;1.60;;;;;;;;;;4976298;28;20782;-74
2024/02/07 13:35:02;;;;;;;1.97;1.57;;;;;;;;;;4975965;28;20486;-74
2024/02/07 13:37:28;;;;;;;4.77;2.00;;;;;;;;;;4975562;28;20412;-74
2024/02/07 13:39:55;;;;;;;2.07;1.67;;;;;;;;;;4975907;28;20521;-74
2024/02/07 13:42:21;;;;;;;3.47;1.83;;;;;;;;;;4975825;28;21001;-73
2024/02/07 13:44:47;;;;;;;3.23;1.83;;;;;;;;;;4975857;28;20408;-73
2024/02/07 13:47:13;;;;;;;2.90;1.60;;;;;;;;;;4977945;28;20416;-73
2024/02/07 13:49:39;;;;;;;2.67;1.80;;;;;;;;;;4974437;28;20432;-73
2024/02/07 13:52:05;;;;;;;7.60;2.40;;;;;;;;;;4975975;28;20951;-74
2024/02/07 13:54:32;;;;;;;4.43;1.77;;;;;;;;;;4976058;28;20419;-73
2024/02/07 13:56:58;;;;;;;6.50;2.20;;;;;;;;;;4975980;28;20416;-73
2024/02/07 13:59:24;;;;;;;2.60;1.80;;;;;;;;;;4975574;28;20495;-74
2024/02/07 14:01:50;;;;;;;2.13;1.50;;;;;;;;;;4975290;28;20475;-74
2024/02/07 14:04:16;;;;;;;3.93;1.70;;;;;;;;;;4975484;28;20555;-74
2024/02/07 14:06:42;;;;;;;2.50;1.40;;;;;;;;;;4975558;28;20919;-73
2024/02/07 14:09:08;;;;;;;7.93;1.87;;;;;;;;;;4975613;28;20412;-74
2024/02/07 14:11:40;;;;;;;3.30;1.80;;;;;;;;;;4975396;28;20801;-75
2024/02/07 14:14:06;;;;;;;5.83;1.50;;;;;;;;;;4975648;28;20753;-74
2024/02/07 14:16:32;;;;;;;3.17;1.60;;;;;;;;;;4975549;28;20415;-75
2024/02/07 14:18:58;;;;;;;1.93;1.33;;;;;;;;;;4975426;28;20428;-74
2024/02/07 14:21:24;;;;;;;3.23;1.50;;;;;;;;;;4975303;28;20538;-74
2024/02/07 14:23:50;;;;;;;3.23;1.90;;;;;;;;;;4975554;28;20880;-74
2024/02/07 14:26:16;;;;;;;3.77;1.83;;;;;;;;;;4975583;28;20469;-74
2024/02/07 14:28:42;;;;;;;2.20;1.80;;;;;;;;;;4975196;28;20419;-73
2024/02/07 14:31:08;;;;;;;2.27;1.30;;;;;;;;;;4974744;28;20471;-74
2024/02/07 14:33:34;;;;;;;1.50;1.40;;;;;;;;;;4974999;28;20467;-74
2024/02/07 14:36:00;;;;;;;1.90;1.53;;;;;;;;;;4975047;28;20427;-74
2024/02/07 14:38:29;;;;;;;1.40;1.20;;;;;;;;;;4975091;28;20494;-75
2024/02/07 14:40:57;;;;;;;4.10;1.70;;;;;;;;;;4975027;28;20990;-73
2024/02/07 14:43:23;;;;;;;5.60;1.50;;;;;;;;;;4975751;28;20422;-73
2024/02/07 14:45:49;;;;;;;2.63;1.30;;;;;;;;;;4975783;28;20498;-74
2024/02/07 14:48:14;;;;;;;1.03;1.00;;;;;;;;;;4975852;28;20416;-74
2024/02/07 14:50:40;;;;;;;3.93;1.57;;;;;;;;;;4975718;28;20440;-73
2024/02/07 14:53:07;;;;;;;1.30;1.20;;;;;;;;;;4974578;28;20573;-76
2024/02/07 14:55:33;;;;;;;3.07;1.40;;;;;;;;;;4974593;28;20922;-74
2024/02/07 14:57:59;;;;;;;2.33;1.63;;;;;;;;;;4974647;28;20783;-75
2024/02/07 15:00:25;;;;;;;1.27;1.20;;;;;;;;;;4973956;28;20412;-74
2024/02/07 15:02:51;;;;;;;3.87;1.40;;;;;;;;;;4974120;28;20427;-74
2024/02/07 15:05:17;;;;;;;4.10;1.70;;;;;;;;;;4974444;28;20468;-74
2024/02/07 15:07:46;;;;;;;4.47;1.80;;;;;;;;;;4974169;28;20891;-77
2024/02/07 15:10:12;;;;;;;3.63;1.97;;;;;;;;;;4973758;28;20415;-75
2024/02/07 15:12:38;;;;;;;2.23;1.23;;;;;;;;;;4974386;28;20415;-75
2024/02/07 15:15:06;;;;;;;1.80;1.70;;;;;;;;;;4973650;28;20974;-75
2024/02/07 15:17:32;;;;;;;4.33;1.73;;;;;;;;;;4973872;28;20439;-75
2024/02/07 15:19:58;;;;;;;2.27;1.80;;;;;;;;;;4973997;28;20424;-75
2024/02/07 15:22:24;;;;;;;4.30;2.37;;;;;;;;;;4973663;28;20464;-75
2024/02/07 15:24:49;;;;;;;3.03;1.70;;;;;;;;;;4973886;28;20471;-75
2024/02/07 15:27:15;;;;;;;2.70;2.00;;;;;;;;;;4974553;28;20834;-75
2024/02/07 15:29:41;;;;;;;2.40;1.77;;;;;;;;;;4973955;28;20434;-75
2024/02/07 15:32:09;;;;;;;1.53;1.50;;;;;;;;;;4974012;28;20427;-74
2024/02/07 15:34:35;;;;;;;3.20;1.70;;;;;;;;;;4973876;28;20512;-74
2024/02/07 15:37:01;;;;;;;2.63;1.50;;;;;;;;;;4973785;28;20508;-75
2024/02/07 15:39:28;;;;;;;6.90;2.17;;;;;;;;;;4973415;28;20495;-74
2024/02/07 15:41:54;;;;;;;3.93;1.73;;;;;;;;;;4973595;28;20471;-74
2024/02/07 15:44:20;;;;;;;6.10;1.97;;;;;;;;;;4973681;28;20875;-74
2024/02/07 15:46:46;;;;;;;3.20;1.70;;;;;;;;;;4974093;28;20949;-74
2024/02/07 15:49:11;;;;;;;5.17;2.00;;;;;;;;;;4974510;28;20420;-74
2024/02/07 15:51:37;;;;;;;5.83;1.90;;;;;;;;;;4973823;28;20482;-74
2024/02/07 15:54:04;;;;;;;3.73;1.80;;;;;;;;;;4974836;28;20416;-73
2024/02/07 15:56:30;;;;;;;4.00;2.00;;;;;;;;;;4975059;28;20488;-74
2024/02/07 15:58:56;;;;;;;6.73;2.00;;;;;;;;;;4974625;28;20903;-74
2024/02/07 16:01:22;;;;;;;3.53;1.80;;;;;;;;;;4974469;28;20474;-74
2024/02/07 16:03:48;;;;;;;3.10;1.73;;;;;;;;;;4973581;28;20408;-74
2024/02/07 16:06:14;;;;;;;2.87;2.20;;;;;;;;;;4974463;28;20411;-74
2024/02/07 16:08:50;;;;;;;3.57;2.07;;;;;;;;;;4973630;28;20848;-74
2024/02/07 16:11:19;;;;;;;7.10;2.10;;;;;;;;;;4972998;28;20524;-75
2024/02/07 16:13:45;;;;;;;8.13;2.20;;;;;;;;;;4973380;28;20408;-76
2024/02/07 16:16:11;;;;;;;4.37;2.10;;;;;;;;;;4972950;28;20467;-72
2024/02/07 16:18:37;;;;;;;1.80;1.70;;;;;;;;;;4973227;28;20420;-73
2024/02/07 16:21:03;;;;;;;3.93;1.77;;;;;;;;;;4973281;28;21201;-73
2024/02/07 16:23:29;;;;;;;3.83;1.97;;;;;;;;;;4973182;28;20958;-73
2024/02/07 16:25:56;;;;;;;7.20;2.43;;;;;;;;;;4955281;28;20413;-72
2024/02/07 16:28:22;;;;;;;2.13;1.97;;;;;;;;;;4953710;28;20923;-72
2024/02/07 16:30:48;;;;;;;3.23;2.20;;;;;;;;;;4953426;29;20468;-71
2024/02/07 16:33:16;;;;;;;3.07;2.37;;;;;;;;;;4956799;28;20419;-75
2024/02/07 16:35:42;;;;;;;5.70;2.60;;;;;;;;;;4973335;28;20418;-74
2024/02/07 16:38:08;;;;;;;4.73;2.83;;;;;;;;;;4973229;28;20420;-75
2024/02/07 16:40:35;;;;;;;9.33;4.17;;;;;;;;;;4972197;28;20494;-74
2024/02/07 16:43:01;;;;;;;5.00;2.57;;;;;;;;;;4972500;28;20487;-75
2024/02/07 16:45:27;;;;;;;6.37;3.10;;;;;;;;;;4973237;28;20496;-75
2024/02/07 16:47:53;;;;;;;3.53;2.70;;;;;;;;;;4973376;28;20912;-76
2024/02/07 16:50:19;;;;;;;10.53;2.97;;;;;;;;;;4961649;28;20432;-75
2024/02/07 16:52:45;;;;;;;5.43;3.07;;;;;;;;;;4953883;28;20421;-75
2024/02/07 16:55:13;;;;;;;7.87;3.37;;;;;;;;;;4970744;28;20431;-74
2024/02/07 16:57:39;;;;;;;6.67;2.67;;;;;;;;;;4972757;28;20423;-74
2024/02/07 17:00:06;;;;;;;42.40;4.20;;;;;;;;;;4972260;28;20423;-75
2024/02/07 17:02:32;;;;;;;8.50;3.53;;;;;;;;;;4972534;28;20993;-74
2024/02/07 17:04:58;;;;;;;4.07;2.80;;;;;;;;;;4972561;28;20416;-74
2024/02/07 17:07:24;;;;;;;7.00;3.17;;;;;;;;;;4972473;28;20466;-74
2024/02/07 17:09:51;;;;;;;8.00;2.80;;;;;;;;;;4972522;28;20495;-74
2024/02/07 17:12:17;;;;;;;6.33;3.67;;;;;;;;;;4975773;28;20438;-75
2024/02/07 17:14:45;;;;;;;7.63;3.20;;;;;;;;;;4975860;28;20419;-74
2024/02/07 17:17:11;;;;;;;5.83;3.90;;;;;;;;;;4976116;28;20915;-74
2024/02/07 17:19:37;;;;;;;6.63;4.17;;;;;;;;;;4975571;28;20424;-74
2024/02/07 17:22:03;;;;;;;6.00;3.23;;;;;;;;;;4975861;28;20478;-73
2024/02/07 17:24:29;;;;;;;8.90;3.87;;;;;;;;;;4975950;28;20420;-73
2024/02/07 17:26:55;;;;;;;7.10;4.13;;;;;;;;;;4975898;28;20446;-72
2024/02/07 17:29:21;;;;;;;7.27;3.83;;;;;;;;;;4975492;28;20428;-73
2024/02/07 17:31:48;;;;;;;9.93;4.20;;;;;;;;;;4975586;28;20452;-74
2024/02/07 17:34:14;;;;;;;4.40;2.90;;;;;;;;;;4975489;28;20416;-74
2024/02/07 17:36:40;;;;;;;7.20;3.63;;;;;;;;;;4975632;28;20416;-73
2024/02/07 17:39:06;;;;;;;7.47;3.77;;;;;;;;;;4971061;28;20434;-75
2024/02/07 17:41:32;;;;;;;8.33;4.07;;;;;;;;;;4983560;28;20467;-76
2024/02/07 17:43:58;;;;;;;11.73;5.20;;;;;;;;;;4986967;28;20411;-75
2024/02/07 17:46:24;;;;;;;7.83;3.93;;;;;;;;;;4972681;28;20495;-74
2024/02/07 17:48:50;;;;;;;6.70;3.93;;;;;;;;;;4968918;28;20408;-76
2024/02/07 17:51:16;;;;;;;8.03;3.97;;;;;;;;;;4966164;28;20435;-75
2024/02/07 17:53:42;;;;;;;6.60;3.20;;;;;;;;;;4959934;28;20416;-74
2024/02/07 17:56:08;;;;;;;5.80;3.00;;;;;;;;;;4968145;28;20412;-75
2024/02/07 17:58:34;;;;;;;9.87;4.03;;;;;;;;;;4975267;28;20978;-75
2024/02/07 18:01:00;;;;;;;10.37;3.50;;;;;;;;;;4974712;28;20480;-75
2024/02/07 18:03:26;;;;;;;5.23;3.00;;;;;;;;;;4975395;28;20494;-75
2024/02/07 18:05:52;;;;;;;7.00;3.73;;;;;;;;;;4975045;28;20423;-75
2024/02/07 18:08:18;;;;;;;5.80;3.30;;;;;;;;;;4975316;28;20412;-74
2024/02/07 18:10:45;;;;;;;7.07;3.17;;;;;;;;;;4974592;28;20810;-74
2024/02/07 18:13:11;;;;;;;5.60;3.33;;;;;;;;;;4975082;28;20412;-74
2024/02/07 18:15:37;;;;;;;7.30;3.13;;;;;;;;;;4974973;28;20412;-73
2024/02/07 18:18:04;;;;;;;6.60;3.27;;;;;;;;;;4975157;28;20451;-72
2024/02/07 18:20:32;;;;;;;5.30;2.90;;;;;;;;;;4974609;28;20999;-73
2024/02/07 18:22:58;;;;;;;7.10;2.97;;;;;;;;;;4974845;28;20510;-73
2024/02/07 18:25:25;;;;;;;6.37;3.53;;;;;;;;;;4974677;28;20419;-73
2024/02/07 18:27:51;;;;;;;13.23;3.70;;;;;;;;;;4974863;28;20419;-73
2024/02/07 18:30:18;;;;;;;8.90;4.13;;;;;;;;;;4974619;28;20451;-75
2024/02/07 18:32:44;;;;;;;3.87;2.87;;;;;;;;;;4974991;28;20412;-75
2024/02/07 18:35:10;;;;;;;5.37;3.40;;;;;;;;;;4974871;28;20392;-74
2024/02/07 18:37:36;;;;;;;6.40;3.57;;;;;;;;;;4974999;28;20411;-73
2024/02/07 18:40:02;;;;;;;5.57;3.07;;;;;;;;;;4974684;28;20411;-73
2024/02/07 18:42:28;;;;;;;5.97;3.40;;;;;;;;;;4974593;28;20555;-74
2024/02/07 18:44:54;;;;;;;4.70;2.80;;;;;;;;;;4972706;28;20459;-75
2024/02/07 18:47:20;;;;;;;5.37;3.30;;;;;;;;;;4971873;28;20484;-75
2024/02/07 18:49:46;;;;;;;6.80;3.70;;;;;;;;;;4971241;28;20420;-73
2024/02/07 18:52:12;;;;;;;7.80;2.90;;;;;;;;;;4971173;28;20451;-72
2024/02/07 18:54:38;;;;;;;5.20;2.77;;;;;;;;;;4975165;28;20421;-74
2024/02/07 18:57:04;;;;;;;6.00;3.40;;;;;;;;;;4981789;28;20499;-74
2024/02/07 18:59:30;;;;;;;6.10;2.90;;;;;;;;;;4972809;28;20421;-75
2024/02/07 19:01:56;;;;;;;10.07;3.60;;;;;;;;;;4970578;28;20539;-74
2024/02/07 19:04:24;;;;;;;7.77;3.00;;;;;;;;;;4968400;28;20425;-76
2024/02/07 19:06:50;;;;;;;7.20;2.80;;;;;;;;;;4971470;28;20494;-76
2024/02/07 19:09:16;;;;;;;5.30;2.90;;;;;;;;;;4965639;28;20409;-75
2024/02/07 19:11:42;;;;;;;6.47;3.50;;;;;;;;;;4973668;28;20554;-75
2024/02/07 19:14:08;;;;;;;6.80;2.90;;;;;;;;;;4965277;28;20420;-75
2024/02/07 19:16:34;;;;;;;7.40;3.67;;;;;;;;;;4965828;28;20412;-74
2024/02/07 19:19:02;;;;;;;8.50;2.63;;;;;;;;;;4973864;28;20466;-76
2024/02/07 19:21:29;;;;;;;4.00;2.73;;;;;;;;;;4967013;28;20483;-75
2024/02/07 19:23:55;;;;;;;8.50;3.40;;;;;;;;;;4974265;28;20919;-78
2024/02/07 19:26:21;;;;;;;5.73;2.90;;;;;;;;;;4965138;28;20420;-78
2024/02/07 19:28:47;;;;;;;3.73;2.33;;;;;;;;;;4973937;28;20803;-75
2024/02/07 19:31:13;;;;;;;8.70;2.47;;;;;;;;;;4964880;28;20443;-75
2024/02/07 19:33:39;;;;;;;3.13;2.30;;;;;;;;;;4973200;28;20463;-79
2024/02/07 19:36:05;;;;;;;9.37;3.30;;;;;;;;;;4973497;28;20416;-79
2024/02/07 19:38:32;;;;;;;6.90;2.60;;;;;;;;;;4960091;28;20504;-76
2024/02/07 19:40:58;;;;;;;4.70;2.57;;;;;;;;;;4963679;28;20475;-74
2024/02/07 19:43:24;;;;;;;5.77;2.90;;;;;;;;;;4969598;28;20431;-76
2024/02/07 19:45:51;;;;;;;4.93;2.50;;;;;;;;;;4971531;28;20413;-73
2024/02/07 19:48:17;;;;;;;9.20;3.47;;;;;;;;;;4981344;28;20423;-77
2024/02/07 19:50:43;;;;;;;10.03;2.83;;;;;;;;;;4973419;28;20440;-76
2024/02/07 19:53:09;;;;;;;6.40;2.50;;;;;;;;;;4975162;28;20447;-75
2024/02/07 19:55:35;;;;;;;5.40;2.80;;;;;;;;;;4977187;28;20416;-77
2024/02/07 19:58:01;;;;;;;6.23;2.43;;;;;;;;;;4972952;28;20442;-78
2024/02/07 20:00:27;;;;;;;9.90;2.53;;;;;;;;;;4969144;28;20420;-75
2024/02/07 20:02:53;;;;;;;3.40;2.80;;;;;;;;;;4963716;28;20468;-75
2024/02/07 20:05:19;;;;;;;8.50;2.70;;;;;;;;;;4963656;28;20566;-75
2024/02/07 20:07:45;;;;;;;7.00;3.30;;;;;;;;;;4965257;28;20416;-77
2024/02/07 20:10:11;;;;;;;4.70;2.23;;;;;;;;;;4974177;28;21040;-78
2024/02/07 20:12:37;;;;;;;3.63;2.27;;;;;;;;;;4979330;28;20906;-74
2024/02/07 20:15:03;;;;;;;3.57;2.47;;;;;;;;;;4984777;28;20423;-78
2024/02/07 20:17:29;;;;;;;8.73;2.80;;;;;;;;;;4975162;28;20962;-74
2024/02/07 20:19:55;;;;;;;7.53;2.53;;;;;;;;;;4972945;28;20436;-74
2024/02/07 20:22:21;;;;;;;5.97;2.87;;;;;;;;;;4972616;28;20475;-75
2024/02/07 20:24:47;;;;;;;5.73;3.53;;;;;;;;;;4973106;28;20420;-75
2024/02/07 20:27:13;;;;;;;3.50;2.90;;;;;;;;;;4973108;28;20491;-75
2024/02/07 20:29:39;;;;;;;4.30;2.50;;;;;;;;;;4972977;28;20498;-75
2024/02/07 20:32:05;;;;;;;4.07;2.37;;;;;;;;;;4973568;28;20482;-74
2024/02/07 20:34:31;;;;;;;6.77;2.60;;;;;;;;;;4973171;28;20786;-76
2024/02/07 20:37:00;;;;;;;5.77;2.00;;;;;;;;;;4973121;28;20511;-76